Time,TemperatureF,DewpointF,PressureIn,WindDirection,WindDirectionDegrees,WindSpeedMPH,WindSpeedGustMPH,Humidity,HourlyPrecipIn,Conditions,Clouds,dailyrainin,SolarRadiationWatts/m^2,SoftwareType,DateUTC
2013-09-24 00:22:00,31.0,30.0,-100.00,NE,48,3.0,6.0,95,0.00,,,0.22,0.000000,,2013-09-24 08:22:00,
2013-09-24 00:32:00,31.0,30.0,-100.00,NE,48,3.0,6.0,95,0.00,,,0.22,0.000000,,2013-09-24 08:32:00,
2013-09-24 00:42:00,31.0,30.0,-100.00,NE,48,3.0,6.0,95,0.00,,,0.22,0.000000,,2013-09-24 08:42:00,
2013-09-24 00:52:00,31.0,30.0,-100.00,NE,48,3.0,6.0,95,0.00,,,0.22,0.000000,,2013-09-24 08:52:00,
2013-09-24 01:21:00,30.0,28.0,-100.00,NE,44,2.0,7.0,94,0.00,,,0.22,0.000000,,2013-09-24 09:21:00,
2013-09-24 01:33:00,30.0,28.0,-100.00,NE,44,2.0,7.0,94,0.00,,,0.22,0.000000,,2013-09-24 09:33:00,
2013-09-24 01:43:00,30.0,28.0,-100.00,NE,44,2.0,7.0,94,0.00,,,0.22,0.000000,,2013-09-24 09:43:00,
2013-09-24 01:53:00,30.0,28.0,-100.00,NE,44,2.0,7.0,94,0.00,,,0.22,0.000000,,2013-09-24 09:53:00,
2013-09-24 02:23:00,31.0,29.0,-100.00,NE,50,4.0,7.0,93,0.00,,,0.22,0.000000,,2013-09-24 10:23:00,
2013-09-24 02:33:00,31.0,29.0,-100.00,NE,50,4.0,7.0,93,0.00,,,0.22,0.000000,,2013-09-24 10:33:00,
2013-09-24 02:42:00,31.0,29.0,-100.00,NE,50,4.0,7.0,93,0.00,,,0.22,0.000000,,2013-09-24 10:42:00,
2013-09-24 02:53:00,31.0,29.0,-100.00,NE,50,4.0,7.0,93,0.00,,,0.22,0.000000,,2013-09-24 10:53:00,
2013-09-24 03:22:00,30.0,28.0,-100.00,NE,47,4.0,8.0,93,0.00,,,0.22,0.000000,,2013-09-24 11:22:00,
2013-09-24 03:33:00,30.0,28.0,-100.00,NE,47,4.0,8.0,93,0.00,,,0.22,0.000000,,2013-09-24 11:33:00,
2013-09-24 03:42:00,30.0,28.0,-100.00,NE,47,4.0,8.0,93,0.00,,,0.22,0.000000,,2013-09-24 11:42:00,
2013-09-24 03:52:00,30.0,28.0,-100.00,NE,47,4.0,8.0,93,0.00,,,0.22,0.000000,,2013-09-24 11:52:00,
2013-09-24 04:22:00,30.0,27.0,-100.00,NE,46,2.0,6.0,89,0.00,,,0.22,0.000000,,2013-09-24 12:22:00,
2013-09-24 04:32:00,30.0,27.0,-100.00,NE,46,2.0,6.0,89,0.00,,,0.22,0.000000,,2013-09-24 12:32:00,
2013-09-24 04:42:00,30.0,27.0,-100.00,NE,46,2.0,6.0,89,0.00,,,0.22,0.000000,,2013-09-24 12:42:00,
2013-09-24 04:52:00,30.0,27.0,-100.00,NE,46,2.0,6.0,89,0.00,,,0.22,0.000000,,2013-09-24 12:52:00,
2013-09-24 05:22:00,32.0,26.0,-100.00,NNW,347,1.0,6.0,78,0.00,,,0.22,0.000000,,2013-09-24 13:22:00,
2013-09-24 05:32:00,32.0,26.0,-100.00,NNW,347,1.0,6.0,78,0.00,,,0.22,0.000000,,2013-09-24 13:32:00,
2013-09-24 05:42:00,32.0,26.0,-100.00,NNW,347,1.0,6.0,78,0.00,,,0.22,0.000000,,2013-09-24 13:42:00,
2013-09-24 05:52:00,32.0,26.0,-100.00,NNW,347,1.0,6.0,78,0.00,,,0.22,0.000000,,2013-09-24 13:52:00,
2013-09-24 06:21:00,31.0,26.0,-100.00,SSW,193,1.0,4.0,80,0.00,,,0.22,0.000000,,2013-09-24 14:21:00,
2013-09-24 06:32:00,31.0,26.0,-100.00,SSW,193,1.0,4.0,80,0.00,,,0.22,0.000000,,2013-09-24 14:32:00,
2013-09-24 06:42:00,31.0,26.0,-100.00,SSW,193,1.0,4.0,80,0.00,,,0.22,0.000000,,2013-09-24 14:42:00,
2013-09-24 06:52:00,31.0,26.0,-100.00,SSW,193,1.0,4.0,80,0.00,,,0.22,0.000000,,2013-09-24 14:52:00,
2013-09-24 07:22:00,30.0,27.0,-100.00,ESE,107,1.0,4.0,88,0.00,,,0.22,0.000000,,2013-09-24 15:22:00,
2013-09-24 07:33:00,30.0,27.0,-100.00,ESE,107,1.0,4.0,88,0.00,,,0.22,0.000000,,2013-09-24 15:33:00,
2013-09-24 07:43:00,30.0,27.0,-100.00,ESE,107,1.0,4.0,88,0.00,,,0.22,0.000000,,2013-09-24 15:43:00,
2013-09-24 07:53:00,30.0,27.0,-100.00,ESE,107,1.0,4.0,88,0.00,,,0.22,0.000000,,2013-09-24 15:53:00,
2013-09-24 08:23:00,30.0,27.0,-100.00,SE,128,2.0,5.0,88,0.00,,,0.22,1.000000,,2013-09-24 16:23:00,
2013-09-24 08:33:00,30.0,27.0,-100.00,SE,128,2.0,5.0,88,0.00,,,0.22,1.000000,,2013-09-24 16:33:00,
2013-09-24 08:43:00,30.0,27.0,-100.00,SE,128,2.0,5.0,88,0.00,,,0.22,1.000000,,2013-09-24 16:43:00,
2013-09-24 08:53:00,30.0,27.0,-100.00,SE,128,2.0,5.0,88,0.00,,,0.22,1.000000,,2013-09-24 16:53:00,
2013-09-24 09:23:00,29.0,25.0,-100.00,NE,50,4.0,5.0,85,0.00,,,0.22,13.000000,,2013-09-24 17:23:00,
2013-09-24 09:33:00,29.0,25.0,-100.00,NE,50,4.0,5.0,85,0.00,,,0.22,13.000000,,2013-09-24 17:33:00,
2013-09-24 09:43:00,29.0,25.0,-100.00,NE,50,4.0,5.0,85,0.00,,,0.22,13.000000,,2013-09-24 17:43:00,
2013-09-24 09:53:00,29.0,25.0,-100.00,NE,50,4.0,5.0,85,0.00,,,0.22,13.000000,,2013-09-24 17:53:00,
2013-09-24 10:22:00,35.0,29.0,-100.00,NW,320,1.0,4.0,79,0.00,,,0.22,53.000000,,2013-09-24 18:22:00,
2013-09-24 10:32:00,35.0,29.0,-100.00,NW,320,1.0,4.0,79,0.00,,,0.22,53.000000,,2013-09-24 18:32:00,
2013-09-24 10:42:00,35.0,29.0,-100.00,NW,320,1.0,4.0,79,0.00,,,0.22,53.000000,,2013-09-24 18:42:00,
2013-09-24 10:52:00,35.0,29.0,-100.00,NW,320,1.0,4.0,79,0.00,,,0.22,53.000000,,2013-09-24 18:52:00,
2013-09-24 11:22:00,39.0,28.0,-100.00,North,3,2.0,4.0,65,0.00,,,0.22,284.000000,,2013-09-24 19:22:00,
2013-09-24 11:32:00,39.0,28.0,-100.00,North,3,2.0,4.0,65,0.00,,,0.22,284.000000,,2013-09-24 19:32:00,
2013-09-24 11:42:00,39.0,28.0,-100.00,North,3,2.0,4.0,65,0.00,,,0.22,284.000000,,2013-09-24 19:42:00,
2013-09-24 11:52:00,39.0,28.0,-100.00,North,3,2.0,4.0,65,0.00,,,0.22,284.000000,,2013-09-24 19:52:00,
2013-09-24 12:22:00,39.0,30.0,-100.00,NNW,327,2.0,4.0,70,0.00,,,0.22,328.000000,,2013-09-24 20:22:00,
2013-09-24 12:32:00,39.0,30.0,-100.00,NNW,327,2.0,4.0,70,0.00,,,0.22,328.000000,,2013-09-24 20:32:00,
2013-09-24 12:42:00,39.0,30.0,-100.00,NNW,327,2.0,4.0,70,0.00,,,0.22,328.000000,,2013-09-24 20:42:00,
2013-09-24 12:52:00,39.0,30.0,-100.00,NNW,327,2.0,4.0,70,0.00,,,0.22,328.000000,,2013-09-24 20:52:00,
2013-09-24 13:22:00,40.0,31.0,-100.00,NW,306,2.0,4.0,70,0.00,,,0.21,330.000000,,2013-09-24 21:22:00,
2013-09-24 13:33:00,40.0,31.0,-100.00,NW,306,2.0,4.0,70,0.00,,,0.21,330.000000,,2013-09-24 21:33:00,
2013-09-24 13:43:00,40.0,31.0,-100.00,NW,306,2.0,4.0,70,0.00,,,0.21,330.000000,,2013-09-24 21:43:00,
2013-09-24 13:54:00,40.0,31.0,-100.00,NW,306,2.0,4.0,70,0.00,,,0.21,330.000000,,2013-09-24 21:54:00,
2013-09-24 14:23:00,42.0,31.0,-100.00,WNW,303,3.0,6.0,65,0.00,,,0.19,375.000000,,2013-09-24 22:23:00,
2013-09-24 14:34:00,42.0,31.0,-100.00,WNW,303,3.0,6.0,65,0.00,,,0.19,375.000000,,2013-09-24 22:34:00,
2013-09-24 14:43:00,42.0,31.0,-100.00,WNW,303,3.0,6.0,65,0.00,,,0.19,375.000000,,2013-09-24 22:43:00,
2013-09-24 14:53:00,42.0,31.0,-100.00,WNW,303,3.0,6.0,65,0.00,,,0.19,375.000000,,2013-09-24 22:53:00,
2013-09-24 15:22:00,42.0,31.0,-100.00,NNW,339,3.0,6.0,66,0.00,,,0.15,298.000000,,2013-09-24 23:22:00,
2013-09-24 15:33:00,42.0,31.0,-100.00,NNW,339,3.0,6.0,66,0.00,,,0.15,298.000000,,2013-09-24 23:33:00,
2013-09-24 15:43:00,42.0,31.0,-100.00,NNW,339,3.0,6.0,66,0.00,,,0.15,298.000000,,2013-09-24 23:43:00,
2013-09-24 15:53:00,42.0,31.0,-100.00,NNW,339,3.0,6.0,66,0.00,,,0.15,298.000000,,2013-09-24 23:53:00,
2013-09-24 16:22:00,41.0,33.0,-100.00,NE,35,2.0,6.0,74,0.00,,,0.06,198.000000,,2013-09-25 00:22:00,
2013-09-24 16:32:00,41.0,33.0,-100.00,NE,35,2.0,6.0,74,0.00,,,0.06,198.000000,,2013-09-25 00:32:00,
2013-09-24 16:42:00,41.0,33.0,-100.00,NE,35,2.0,6.0,74,0.00,,,0.06,198.000000,,2013-09-25 00:42:00,
2013-09-24 16:52:00,41.0,33.0,-100.00,NE,35,2.0,6.0,74,0.00,,,0.06,198.000000,,2013-09-25 00:52:00,
2013-09-24 17:21:00,39.0,34.0,-100.00,NNE,27,5.0,7.0,82,0.00,,,0.01,127.000000,,2013-09-25 01:21:00,
2013-09-24 17:32:00,39.0,34.0,-100.00,NNE,27,5.0,7.0,82,0.00,,,0.01,127.000000,,2013-09-25 01:32:00,
2013-09-24 17:42:00,39.0,34.0,-100.00,NNE,27,5.0,7.0,82,0.00,,,0.01,127.000000,,2013-09-25 01:42:00,
2013-09-24 17:52:00,39.0,34.0,-100.00,NNE,27,5.0,7.0,82,0.00,,,0.01,127.000000,,2013-09-25 01:52:00,
2013-09-24 18:21:00,41.0,34.0,-100.00,North,10,4.0,12.0,75,0.00,,,0.00,109.000000,,2013-09-25 02:21:00,
2013-09-24 18:32:00,41.0,34.0,-100.00,North,10,4.0,12.0,75,0.00,,,0.00,109.000000,,2013-09-25 02:32:00,
2013-09-24 18:42:00,41.0,34.0,-100.00,North,10,4.0,12.0,75,0.00,,,0.00,109.000000,,2013-09-25 02:42:00,
2013-09-24 18:52:00,41.0,34.0,-100.00,North,10,4.0,12.0,75,0.00,,,0.00,109.000000,,2013-09-25 02:52:00,
2013-09-24 19:23:00,41.0,36.0,-100.00,East,97,3.0,14.0,83,0.00,,,0.00,51.000000,,2013-09-25 03:23:00,
2013-09-24 19:33:00,41.0,36.0,-100.00,East,97,3.0,14.0,83,0.00,,,0.00,51.000000,,2013-09-25 03:33:00,
2013-09-24 19:44:00,41.0,36.0,-100.00,East,97,3.0,14.0,83,0.00,,,0.00,51.000000,,2013-09-25 03:44:00,
2013-09-24 19:54:00,41.0,36.0,-100.00,East,97,3.0,14.0,83,0.00,,,0.00,51.000000,,2013-09-25 03:54:00,
2013-09-24 20:24:00,41.0,34.0,-100.00,NNE,28,6.0,10.0,77,0.00,,,0.00,7.000000,,2013-09-25 04:24:00,
2013-09-24 20:34:00,41.0,34.0,-100.00,NNE,28,6.0,10.0,77,0.00,,,0.00,7.000000,,2013-09-25 04:34:00,
2013-09-24 20:43:00,41.0,34.0,-100.00,NNE,28,6.0,10.0,77,0.00,,,0.00,7.000000,,2013-09-25 04:43:00,
2013-09-24 20:54:00,41.0,34.0,-100.00,NNE,28,6.0,10.0,77,0.00,,,0.00,7.000000,,2013-09-25 04:54:00,
2013-09-24 21:23:00,43.0,35.0,-100.00,North,356,6.0,19.0,73,0.00,,,0.00,0.000000,,2013-09-25 05:23:00,
2013-09-24 21:33:00,43.0,35.0,-100.00,North,356,6.0,19.0,73,0.00,,,0.00,0.000000,,2013-09-25 05:33:00,
2013-09-24 21:44:00,43.0,35.0,-100.00,North,356,6.0,19.0,73,0.00,,,0.00,0.000000,,2013-09-25 05:44:00,
2013-09-24 21:53:00,43.0,35.0,-100.00,North,356,6.0,19.0,73,0.00,,,0.00,0.000000,,2013-09-25 05:53:00,
2013-09-24 22:23:00,41.0,33.0,-100.00,North,10,7.0,22.0,72,0.00,,,0.00,0.000000,,2013-09-25 06:23:00,
2013-09-24 22:32:00,41.0,33.0,-100.00,North,10,7.0,22.0,72,0.00,,,0.00,0.000000,,2013-09-25 06:32:00,
2013-09-24 22:42:00,41.0,33.0,-100.00,North,10,7.0,22.0,72,0.00,,,0.00,0.000000,,2013-09-25 06:42:00,
2013-09-24 22:52:00,41.0,33.0,-100.00,North,10,7.0,22.0,72,0.00,,,0.00,0.000000,,2013-09-25 06:52:00,
2013-09-24 23:21:00,49.0,40.0,-100.00,ENE,67,9.0,26.0,71,0.00,,,0.00,0.000000,,2013-09-25 07:21:00,
2013-09-24 23:33:00,49.0,40.0,-100.00,ENE,67,9.0,26.0,71,0.00,,,0.00,0.000000,,2013-09-25 07:33:00,
2013-09-24 23:42:00,49.0,40.0,-100.00,ENE,67,9.0,26.0,71,0.00,,,0.00,0.000000,,2013-09-25 07:42:00,
2013-09-24 23:52:00,49.0,40.0,-100.00,ENE,67,9.0,26.0,71,0.00,,,0.00,0.000000,,2013-09-25 07:52:00,